SBRB/RBR METAR and TAF weather

Enter ICAO airport designator
Station Type Date Time Source
SBRB METAR 2022/01/18 06:00 UTC NOAA

SBRB 180600Z 30002KT 9999 FEW023 24/23 Q1011


Station Type Date Time Source
SBRB Decoded METAR 2022/01/18 06:00 UTC NOAA

Rio Branco, Brazil (SBRB) 10-00S 067-48W 143M
Jan 18, 2022 - 01:00 AM EST / 2022.01.18 0600 UTC
Wind: from the WNW (300 degrees) at 2 MPH (2 KT):0
Visibility: greater than 7 mile(s):0
Sky conditions: mostly clear
Temperature: 75 F (24 C)
Dew Point: 73 F (23 C)
Relative Humidity: 94%
Pressure (altimeter): 29.85 in. Hg (1011 hPa)
ob: SBRB 180600Z 30002KT 9999 FEW023 24/23 Q1011
cycle: 6

Station Type Date Time Source
SBRB TAF 2022/01/18 06:48 UTC NOAA

TAF SBRB 180245Z 1806/1818 34005KT 7000 SCT016 TN23/1808Z TX31/1818Z
BECMG 1806/1809 32005KT
BECMG 1815/1817 36005KT TS SCT020 FEW030CB
RMK PGW

Example: see airport list